createdAt,value
2022-10-18T00:02:32.452Z,14.3
2022-10-18T00:12:34.818Z,14.2
2022-10-18T00:22:37.106Z,14.2
2022-10-18T00:32:38.991Z,14.2
2022-10-18T00:52:43.509Z,14.2
2022-10-18T01:02:45.856Z,14.2
2022-10-18T01:22:50.548Z,14.1
2022-10-18T01:32:52.910Z,14.1
2022-10-18T01:42:54.646Z,14.1
2022-10-18T01:52:56.533Z,14.1
2022-10-18T02:02:58.488Z,14.1
2022-10-18T02:13:00.919Z,14.1
2022-10-18T02:23:03.148Z,14
2022-10-18T02:33:05.377Z,14
2022-10-18T02:43:07.421Z,14
2022-10-18T02:53:09.403Z,13.9
2022-10-18T03:03:11.611Z,13.9
2022-10-18T03:13:14.187Z,13.9
2022-10-18T03:23:16.390Z,13.9
2022-10-18T03:33:18.144Z,13.9
2022-10-18T03:43:20.632Z,13.9
2022-10-18T03:53:22.578Z,13.9
2022-10-18T04:03:25.137Z,13.9
2022-10-18T04:13:27.065Z,13.9
2022-10-18T04:23:29.247Z,13.9
2022-10-18T04:33:31.804Z,13.9
2022-10-18T04:43:33.535Z,13.9
2022-10-18T04:53:36.137Z,13.9
2022-10-18T05:03:37.823Z,13.8
2022-10-18T05:13:40.091Z,13.8
2022-10-18T05:23:42.151Z,13.8
2022-10-18T05:33:44.641Z,13.7
2022-10-18T05:43:46.992Z,13.8
2022-10-18T05:53:48.653Z,13.9
2022-10-18T06:03:50.744Z,13.8
2022-10-18T06:13:52.504Z,13.7
2022-10-18T06:23:54.168Z,13.6
2022-10-18T06:33:55.896Z,13.8
2022-10-18T06:43:57.662Z,13.8
2022-10-18T06:54:16.685Z,13.8
2022-10-18T07:04:02.759Z,13.9
2022-10-18T07:14:05.000Z,13.9
2022-10-18T07:24:07.285Z,14
2022-10-18T07:34:09.452Z,14.1
2022-10-18T07:44:11.497Z,14.4
2022-10-18T07:54:13.736Z,14.5
2022-10-18T08:04:16.591Z,14.9
2022-10-18T08:14:17.648Z,14.6
2022-10-18T08:24:19.554Z,14.3
2022-10-18T08:34:21.600Z,14.3
2022-10-18T08:44:23.419Z,14.3
2022-10-18T08:54:25.764Z,14.6
2022-10-18T09:04:27.538Z,14.9
2022-10-18T09:14:29.992Z,15.1
2022-10-18T09:24:32.257Z,15.2
2022-10-18T09:34:33.962Z,16
2022-10-18T09:44:35.870Z,16.3
2022-10-18T09:54:37.960Z,15.9
2022-10-18T10:04:39.827Z,16.1
2022-10-18T10:14:42.410Z,16.1
2022-10-18T10:24:44.496Z,16.9
2022-10-18T10:34:46.572Z,17.2
2022-10-18T10:44:48.278Z,16.9
2022-10-18T10:54:52.438Z,17.7
2022-10-18T11:04:52.749Z,18.3
2022-10-18T11:14:54.989Z,16.6
2022-10-18T11:35:06.962Z,18.6
2022-10-18T11:45:09.469Z,18.5
2022-10-18T11:55:11.661Z,17.8
2022-10-18T12:05:24.689Z,18
2022-10-18T12:25:18.159Z,18.3
2022-10-18T12:35:20.787Z,18.2
2022-10-18T12:45:23.078Z,17.7
2022-10-18T12:55:25.256Z,18
2022-10-18T13:05:33.780Z,18
2022-10-18T13:15:32.276Z,18.3
2022-10-18T13:25:31.624Z,17.8
2022-10-18T13:35:33.366Z,17.7
2022-10-18T13:45:35.638Z,17.5
2022-10-18T13:55:37.513Z,17.5
2022-10-18T14:05:39.433Z,17.4
2022-10-18T14:25:43.923Z,17.3
2022-10-18T14:35:46.165Z,17.2
2022-10-18T14:45:48.466Z,17
2022-10-18T14:55:50.406Z,16.9
2022-10-18T15:05:52.999Z,16.7
2022-10-18T15:15:54.708Z,16.5
2022-10-18T15:25:57.005Z,16.3
2022-10-18T15:35:58.891Z,16.3
2022-10-18T15:46:03.254Z,15.7
2022-10-18T15:56:04.101Z,15.5
2022-10-18T16:06:06.477Z,15.2
2022-10-18T16:16:08.631Z,14.7
2022-10-18T16:26:10.680Z,14.4
2022-10-18T16:36:13.307Z,13.8
2022-10-18T16:46:15.935Z,13.5
2022-10-18T16:56:17.612Z,12.9
2022-10-18T17:16:22.421Z,12.4
2022-10-18T17:26:28.706Z,12
2022-10-18T17:36:26.564Z,11.9
2022-10-18T17:46:29.085Z,11.8
2022-10-18T17:56:31.459Z,11.6
2022-10-18T18:06:33.613Z,11.5
2022-10-18T18:16:35.557Z,11.3
2022-10-18T18:26:37.969Z,11.2
2022-10-18T18:36:39.789Z,11
2022-10-18T18:56:44.368Z,10.6
2022-10-18T19:06:46.070Z,10.6
2022-10-18T19:16:48.627Z,10.6
2022-10-18T19:26:51.062Z,11.1
2022-10-18T19:36:52.893Z,10.4
2022-10-18T19:46:55.310Z,10.2
2022-10-18T20:06:59.331Z,10.1
2022-10-18T20:17:01.571Z,9.8
2022-10-18T20:27:03.440Z,9.7
2022-10-18T20:37:05.239Z,9.7
2022-10-18T20:57:09.863Z,9
2022-10-18T21:07:12.055Z,8.9
2022-10-18T21:17:14.497Z,9.1
2022-10-18T21:27:16.520Z,8.9
2022-10-18T21:37:18.953Z,8.5
2022-10-18T21:47:20.932Z,8.3
2022-10-18T21:57:23.246Z,8.2
2022-10-18T22:07:25.677Z,7.9
2022-10-18T22:17:27.688Z,7.8
2022-10-18T22:27:35.421Z,7.4
2022-10-18T22:37:32.124Z,7.3
2022-10-18T22:47:33.965Z,7
2022-10-18T22:57:36.083Z,6.7
2022-10-18T23:07:38.673Z,6.7
2022-10-18T23:17:41.244Z,6.6
2022-10-18T23:37:45.714Z,6.4
2022-10-18T23:47:47.517Z,6.2
2022-10-18T23:57:49.415Z,6.2
